Time;durP1;ratioP1;P1;durP2;ratioP2;P2;SDS_P1;SDS_P2;PMS_P1;PMS_P2;Temp;Humidity;BMP_temperature;BMP_pressure;BME280_temperature;BME280_humidity;BME280_pressure;Samples;Min_cycle;Max_cycle;Signal;HPM_P1;HPM_P2
2023/01/16 00:00:17;;;;;;;1.97;0.50;;;;;;;5.74;71.32;99421.59;5054561;28;20231;-79
2023/01/16 00:02:43;;;;;;;4.57;0.90;;;;;;;5.69;71.40;99423.38;5055406;28;20751;-80
2023/01/16 00:05:11;;;;;;;1.23;0.63;;;;;;;5.73;70.96;99412.13;5055625;28;20639;-79
2023/01/16 00:07:37;;;;;;;2.13;0.53;;;;;;;5.71;71.37;99404.38;5055420;28;20234;-79
2023/01/16 00:10:04;;;;;;;2.00;0.80;;;;;;;5.65;70.68;99409.66;5054504;28;20550;-79
2023/01/16 00:12:31;;;;;;;2.27;0.67;;;;;;;5.73;71.88;99410.38;5044632;28;20728;-80
2023/01/16 00:14:57;;;;;;;1.93;0.90;;;;;;;5.67;71.58;99413.06;5054788;28;20228;-80
2023/01/16 00:17:23;;;;;;;0.77;0.60;;;;;;;5.70;71.13;99402.66;5055541;28;20272;-80
2023/01/16 00:19:50;;;;;;;0.70;0.53;;;;;;;5.66;71.13;99416.53;5054142;28;20239;-78
2023/01/16 00:22:18;;;;;;;1.50;0.50;;;;;;;5.73;71.10;99406.94;5055105;28;20209;-79
2023/01/16 00:24:44;;;;;;;1.30;0.70;;;;;;;5.73;70.62;99404.34;5055249;28;20250;-80
2023/01/16 00:27:10;;;;;;;1.00;0.57;;;;;;;5.67;70.49;99394.06;5055065;28;20266;-79
2023/01/16 00:29:37;;;;;;;1.50;0.57;;;;;;;5.70;70.74;99392.28;5055024;28;20253;-79
2023/01/16 00:32:03;;;;;;;2.00;0.70;;;;;;;5.68;71.44;99385.44;5054234;28;20206;-79
2023/01/16 00:34:29;;;;;;;3.20;0.50;;;;;;;5.81;71.03;99374.00;5055155;28;20213;-79
2023/01/16 00:36:56;;;;;;;1.47;0.70;;;;;;;5.88;71.49;99367.84;5055387;28;20204;-80
2023/01/16 00:39:24;;;;;;;0.40;0.40;;;;;;;5.85;70.50;99365.31;5055047;28;20232;-80
2023/01/16 00:41:50;;;;;;;2.00;0.70;;;;;;;5.93;71.05;99358.25;5048857;28;20216;-80
2023/01/16 00:44:16;;;;;;;0.83;0.40;;;;;;;5.78;70.90;99356.78;5049714;28;20204;-80
2023/01/16 00:46:43;;;;;;;1.00;0.70;;;;;;;5.75;70.97;99353.41;5054542;28;20208;-80
2023/01/16 00:49:09;;;;;;;2.00;0.60;;;;;;;5.67;70.80;99342.28;5055119;28;20204;-79
2023/01/16 00:51:35;;;;;;;2.87;0.60;;;;;;;5.74;71.25;99347.34;5054186;28;20224;-79
2023/01/16 00:54:02;;;;;;;1.57;0.70;;;;;;;5.64;71.02;99350.13;5054903;28;20208;-79
2023/01/16 00:56:30;;;;;;;1.27;0.70;;;;;;;5.64;71.53;99335.44;5054385;28;20612;-80
2023/01/16 00:58:56;;;;;;;2.93;0.70;;;;;;;5.54;70.86;99320.94;5054649;28;20769;-79
2023/01/16 01:01:22;;;;;;;1.03;0.60;;;;;;;5.62;72.00;99331.19;5053403;28;20252;-80
2023/01/16 01:03:49;;;;;;;1.27;0.47;;;;;;;5.58;71.68;99309.66;5054384;28;20838;-79
2023/01/16 01:06:15;;;;;;;2.77;0.70;;;;;;;5.64;72.58;99288.84;5055131;28;20206;-79
2023/01/16 01:08:41;;;;;;;0.77;0.70;;;;;;;5.66;73.06;99276.72;5054744;28;20205;-79
2023/01/16 01:11:09;;;;;;;2.63;0.70;;;;;;;5.67;74.03;99255.16;5051266;28;20275;-79
2023/01/16 01:13:37;;;;;;;2.40;0.83;;;;;;;5.62;73.63;99238.84;5046338;28;20206;-79
2023/01/16 01:16:05;;;;;;;1.37;0.50;;;;;;;5.67;73.96;99230.97;5054138;28;20281;-79
2023/01/16 01:18:31;;;;;;;0.73;0.40;;;;;;;5.70;74.43;99202.44;5054507;28;20212;-80
2023/01/16 01:20:58;;;;;;;2.30;0.60;;;;;;;5.51;74.40;99209.69;5052785;28;20225;-79
2023/01/16 01:23:24;;;;;;;1.90;0.63;;;;;;;5.58;74.65;99198.34;5054228;28;20291;-79
2023/01/16 01:25:52;;;;;;;2.37;0.67;;;;;;;5.54;75.32;99174.25;5054725;28;20209;-79
2023/01/16 01:28:18;;;;;;;1.37;0.50;;;;;;;5.60;75.22;99154.34;5054699;28;20286;-80
2023/01/16 01:30:46;;;;;;;1.37;0.40;;;;;;;5.56;75.65;99148.34;5067348;22;20823;-81
2023/01/16 01:33:13;;;;;;;1.40;0.73;;;;;;;5.50;76.00;99131.22;5045347;28;20196;-83
2023/01/16 01:35:39;;;;;;;2.87;0.50;;;;;;;5.61;75.94;99109.44;5053716;28;20622;-82
2023/01/16 01:38:05;;;;;;;1.40;0.50;;;;;;;5.41;75.24;99115.88;5053273;28;20205;-83
2023/01/16 01:40:33;;;;;;;1.17;0.70;;;;;;;5.50;75.89;99120.84;5052516;28;20228;-82
2023/01/16 01:42:59;;;;;;;0.70;0.50;;;;;;;5.50;76.11;99102.75;5053550;28;20473;-83
2023/01/16 01:45:27;;;;;;;2.30;0.60;;;;;;;5.49;75.82;99097.59;5044255;28;20256;-82
2023/01/16 01:48:03;;;;;;;0.80;0.47;;;;;;;5.55;76.41;99089.72;5053125;28;20683;-82
2023/01/16 01:50:37;;;;;;;2.90;0.77;;;;;;;5.61;76.12;99089.59;5052437;28;20228;-84
2023/01/16 01:53:11;;;;;;;1.30;0.63;;;;;;;5.64;75.64;99078.31;5053073;28;20854;-82
2023/01/16 01:55:40;;;;;;;1.67;1.07;;;;;;;5.75;75.58;99078.97;5045221;28;20211;-81
2023/01/16 01:58:07;;;;;;;1.70;0.80;;;;;;;5.72;75.24;99079.84;5044709;28;20666;-81
2023/01/16 02:00:34;;;;;;;1.27;0.40;;;;;;;5.69;76.00;99089.41;5051751;28;20606;-81
2023/01/16 02:03:07;;;;;;;1.20;0.57;;;;;;;5.80;75.35;99082.28;5052715;28;20209;-83
2023/01/16 02:05:37;;;;;;;2.00;0.57;;;;;;;5.83;75.27;99089.13;5052927;28;20208;-81
2023/01/16 02:08:05;;;;;;;1.27;0.60;;;;;;;5.85;75.23;99088.22;5052806;28;20259;-80
2023/01/16 02:10:38;;;;;;;0.97;0.67;;;;;;;5.83;75.25;99092.59;5052162;28;20227;-81
2023/01/16 02:13:05;;;;;;;0.80;0.50;;;;;;;5.74;75.45;99085.00;5053162;28;20212;-80
2023/01/16 02:15:31;;;;;;;1.93;0.80;;;;;;;5.77;74.94;99083.22;5052807;28;20251;-82
2023/01/16 02:20:56;;;;;;;2.10;0.97;;;;;;;5.72;75.86;99072.09;5051846;28;20231;-80
2023/01/16 02:23:53;;;;;;;2.57;0.60;;;;;;;5.38;75.44;99079.69;5053014;28;20211;-81
2023/01/16 02:27:01;;;;;;;1.27;0.63;;;;;;;5.47;76.53;99065.72;5038386;28;20209;-81
2023/01/16 02:30:03;;;;;;;2.47;0.77;;;;;;;5.52;76.06;99040.59;5034599;28;20198;-82
2023/01/16 02:32:40;;;;;;;1.43;0.60;;;;;;;5.50;76.20;99038.03;5034596;28;20856;-80
2023/01/16 02:35:22;;;;;;;2.40;0.77;;;;;;;5.53;76.22;99031.94;5036672;28;20210;-82
2023/01/16 02:37:54;;;;;;;2.00;0.70;;;;;;;5.56;75.87;99024.13;5036937;28;20211;-83
2023/01/16 02:40:29;;;;;;;1.00;0.73;;;;;;;5.67;76.07;99005.75;5035633;28;20240;-82
2023/01/16 02:43:06;;;;;;;1.50;0.60;;;;;;;5.51;76.13;99013.00;5036253;28;20680;-80
2023/01/16 02:45:42;;;;;;;1.27;0.53;;;;;;;5.55;76.57;99006.91;5036266;28;20199;-81
2023/01/16 02:48:16;;;;;;;1.40;0.60;;;;;;;5.58;75.91;98989.53;5036268;28;20207;-83
2023/01/16 02:50:52;;;;;;;2.00;0.80;;;;;;;5.63;76.16;98983.41;5035885;28;20252;-81
2023/01/16 02:53:27;;;;;;;1.70;0.70;;;;;;;5.62;75.93;98987.75;5036682;28;20186;-83
2023/01/16 02:55:57;;;;;;;2.20;0.60;;;;;;;5.57;76.24;98994.78;5036244;28;20263;-82
2023/01/16 02:58:25;;;;;;;2.03;0.80;;;;;;;5.61;76.72;98988.66;5052247;28;20250;-82
2023/01/16 03:00:53;;;;;;;2.30;0.73;;;;;;;5.61;76.40;98980.88;5035330;28;20719;-82
2023/01/16 03:03:36;;;;;;;1.27;0.53;;;;;;;5.64;76.62;98961.84;5035938;28;20206;-82
2023/01/16 03:06:14;;;;;;;1.90;0.53;;;;;;;5.70;76.67;98959.94;5035864;28;20206;-83
2023/01/16 03:08:47;;;;;;;1.00;0.60;;;;;;;5.32;76.53;98968.56;5036219;28;20738;-83
2023/01/16 03:11:22;;;;;;;1.47;0.70;;;;;;;5.40;77.63;98939.94;5034754;28;20265;-81
2023/01/16 03:14:11;;;;;;;1.87;0.70;;;;;;;5.55;77.47;98911.16;5035858;28;20214;-80
2023/01/16 03:16:50;;;;;;;1.03;0.40;;;;;;;5.18;76.60;98925.72;5026096;28;20210;-80
2023/01/16 03:19:28;;;;;;;1.33;0.97;;;;;;;5.18;77.33;98894.69;5036194;28;20329;-81
2023/01/16 03:22:08;;;;;;;2.00;0.70;;;;;;;5.17;78.10;98882.66;5035023;28;20231;-83
2023/01/16 03:24:45;;;;;;;2.47;0.80;;;;;;;5.38;77.97;98858.03;5035837;28;20264;-80
2023/01/16 03:27:22;;;;;;;0.73;0.43;;;;;;;5.31;78.22;98855.59;5041244;28;20661;-81
2023/01/16 03:29:55;;;;;;;2.17;0.60;;;;;;;5.38;77.74;98858.03;5047240;28;20205;-82
2023/01/16 03:32:31;;;;;;;1.93;0.60;;;;;;;5.34;78.35;98853.81;5055361;28;20279;-82
2023/01/16 03:35:03;;;;;;;0.93;0.60;;;;;;;5.25;77.35;98848.00;5055577;28;20213;-81
2023/01/16 03:37:36;;;;;;;1.03;0.40;;;;;;;5.32;78.33;98842.66;5055151;28;20249;-82
2023/01/16 03:40:05;;;;;;;1.63;0.60;;;;;;;5.31;78.59;98825.44;5054206;28;20232;-80
2023/01/16 03:42:37;;;;;;;1.37;0.40;;;;;;;5.41;78.35;98813.13;5055428;28;20279;-83
2023/01/16 03:45:10;;;;;;;0.63;0.50;;;;;;;5.38;77.35;98821.78;5054861;28;20249;-82
2023/01/16 03:47:42;;;;;;;1.07;0.50;;;;;;;5.28;77.80;98837.59;5055571;28;20212;-81
2023/01/16 03:50:13;;;;;;;2.07;0.77;;;;;;;5.32;77.56;98823.69;5054289;28;20210;-81
2023/01/16 03:52:44;;;;;;;1.17;0.57;;;;;;;5.34;77.62;98830.53;5055432;28;20224;-80
2023/01/16 03:55:16;;;;;;;3.70;0.73;;;;;;;5.36;77.73;98827.91;5055058;28;20259;-83
2023/01/16 03:57:50;;;;;;;1.33;0.50;;;;;;;5.33;76.80;98836.59;5044954;28;20213;-82
2023/01/16 04:00:18;;;;;;;0.67;0.40;;;;;;;5.30;76.45;98852.19;5049045;28;20241;-82
2023/01/16 04:02:49;;;;;;;1.90;0.83;;;;;;;5.26;77.07;98853.13;5055195;28;20208;-83
2023/01/16 04:05:19;;;;;;;1.50;0.70;;;;;;;5.34;77.67;98840.03;5055243;28;20213;-80
2023/01/16 04:07:51;;;;;;;2.33;0.80;;;;;;;5.41;77.08;98827.78;5054879;28;20691;-82
2023/01/16 04:10:22;;;;;;;2.37;0.70;;;;;;;5.37;77.29;98832.19;5053530;28;20299;-82
2023/01/16 04:12:53;;;;;;;0.70;0.60;;;;;;;5.40;76.97;98828.69;5054894;28;20205;-82
2023/01/16 04:15:20;;;;;;;1.30;0.60;;;;;;;5.40;77.42;98829.53;5054290;28;20268;-83
2023/01/16 04:17:47;;;;;;;1.23;0.60;;;;;;;5.31;77.61;98824.56;5055043;28;20242;-81
2023/01/16 04:20:14;;;;;;;1.27;0.63;;;;;;;5.37;77.58;98807.19;5053882;28;20739;-83
2023/01/16 04:22:47;;;;;;;0.60;0.50;;;;;;;5.42;77.49;98814.81;5054258;28;20216;-82
2023/01/16 04:25:13;;;;;;;2.40;0.70;;;;;;;5.41;77.36;98809.66;5054391;28;20204;-81
2023/01/16 04:27:40;;;;;;;1.40;0.63;;;;;;;5.45;78.00;98809.59;5044754;28;20269;-83
2023/01/16 04:30:07;;;;;;;2.30;0.87;;;;;;;5.43;76.80;98815.66;5046948;28;21090;-83
2023/01/16 04:32:34;;;;;;;1.13;0.70;;;;;;;5.46;77.06;98813.00;5054041;28;20728;-81
2023/01/16 04:35:00;;;;;;;1.73;0.50;;;;;;;5.36;76.70;98817.56;5054081;28;20273;-80
2023/01/16 04:37:26;;;;;;;0.60;0.60;;;;;;;5.37;77.75;98795.94;5054346;28;20236;-82
2023/01/16 04:39:54;;;;;;;1.50;0.80;;;;;;;5.38;77.45;98787.31;5054073;28;20706;-84
2023/01/16 04:42:20;;;;;;;1.33;0.80;;;;;;;5.32;77.09;98792.66;5053984;28;20233;-83
2023/01/16 04:44:47;;;;;;;1.00;0.70;;;;;;;5.32;77.52;98787.47;5054578;28;20212;-84
2023/01/16 04:47:13;;;;;;;2.63;0.80;;;;;;;5.33;77.71;98781.41;5056302;28;20545;-82
2023/01/16 04:49:39;;;;;;;1.73;0.60;;;;;;;5.13;77.19;98774.13;5061855;28;20683;-82
2023/01/16 04:52:06;;;;;;;0.73;0.70;;;;;;;5.03;77.73;98749.38;5060601;28;20229;-83
2023/01/16 04:54:32;;;;;;;0.63;0.60;;;;;;;5.11;78.34;98744.84;5060175;28;20211;-81
2023/01/16 04:57:01;;;;;;;1.13;0.57;;;;;;;5.16;78.41;98735.25;5053408;28;20208;-83
2023/01/16 04:59:28;;;;;;;2.43;0.50;;;;;;;5.21;78.12;98725.63;5053603;28;20268;-81
2023/01/16 05:01:54;;;;;;;1.13;0.57;;;;;;;5.25;78.63;98722.13;5058986;28;20229;-82
2023/01/16 05:04:20;;;;;;;0.70;0.47;;;;;;;5.21;77.67;98727.38;5059509;28;20223;-83
2023/01/16 05:06:48;;;;;;;0.93;0.40;;;;;;;5.24;78.14;98712.63;5053193;28;20629;-82
2023/01/16 05:09:14;;;;;;;1.00;0.43;;;;;;;5.29;77.81;98720.28;5053069;28;20235;-80
2023/01/16 05:11:40;;;;;;;0.77;0.60;;;;;;;5.30;78.10;98722.00;5051481;28;20230;-81
2023/01/16 05:14:10;;;;;;;2.07;0.90;;;;;;;5.17;78.18;98726.59;5052937;28;20741;-81
2023/01/16 05:16:37;;;;;;;0.90;0.57;;;;;;;5.15;78.01;98715.44;5053193;28;20288;-80
2023/01/16 05:19:05;;;;;;;2.33;0.50;;;;;;;5.12;78.39;98712.94;5053095;28;20208;-83
2023/01/16 05:21:31;;;;;;;3.00;0.90;;;;;;;5.03;79.16;98700.25;5051895;28;20714;-81
2023/01/16 05:23:58;;;;;;;1.50;0.60;;;;;;;5.06;78.82;98695.84;5053255;28;20206;-83
2023/01/16 05:26:24;;;;;;;1.33;0.60;;;;;;;5.04;78.88;98699.38;5045553;28;20288;-79
2023/01/16 05:28:51;;;;;;;1.13;0.50;;;;;;;5.10;78.70;98683.69;5050031;28;20196;-81
2023/01/16 05:31:19;;;;;;;1.10;0.63;;;;;;;5.17;78.94;98685.22;5032421;28;20232;-82
2023/01/16 05:33:45;;;;;;;1.30;0.63;;;;;;;5.09;78.78;98681.97;5033028;28;20579;-81
2023/01/16 05:36:11;;;;;;;0.57;0.57;;;;;;;5.11;79.10;98675.91;5032990;28;20232;-83
2023/01/16 05:38:38;;;;;;;0.90;0.63;;;;;;;4.96;79.09;98671.94;5032829;28;20206;-80
2023/01/16 05:41:04;;;;;;;0.90;0.50;;;;;;;4.93;80.07;98653.06;5031926;28;20228;-80
2023/01/16 05:43:30;;;;;;;0.63;0.50;;;;;;;5.04;80.02;98626.97;5033050;28;20273;-81
2023/01/16 05:45:57;;;;;;;1.43;0.70;;;;;;;5.13;80.57;98616.34;5033117;28;20208;-82
2023/01/16 05:48:24;;;;;;;0.63;0.60;;;;;;;5.08;81.60;98602.72;5032487;28;20222;-83
2023/01/16 05:50:51;;;;;;;1.53;0.57;;;;;;;4.87;83.15;98557.59;5031894;28;20218;-82
2023/01/16 05:53:18;;;;;;;0.37;0.30;;;;;;;4.77;84.64;98506.13;5032233;28;20256;-83
2023/01/16 05:55:46;;;;;;;0.77;0.50;;;;;;;4.69;86.48;98440.88;5032393;28;20209;-82
2023/01/16 05:58:13;;;;;;;0.30;0.30;;;;;;;4.82;86.37;98388.84;5040674;28;20253;-82
2023/01/16 06:00:40;;;;;;;0.77;0.40;;;;;;;4.89;85.72;98385.19;5049843;28;20228;-83
2023/01/16 06:03:07;;;;;;;0.73;0.30;;;;;;;4.96;86.59;98378.97;5052680;28;20210;-83
2023/01/16 06:05:35;;;;;;;1.40;0.40;;;;;;;5.01;86.08;98366.72;5052248;28;20205;-82
2023/01/16 06:08:02;;;;;;;0.40;0.40;;;;;;;5.04;86.62;98360.63;5055607;28;20554;-81
2023/01/16 06:10:29;;;;;;;0.50;0.50;;;;;;;5.01;86.44;98350.38;5055389;28;20215;-80
2023/01/16 06:12:55;;;;;;;0.50;0.50;;;;;;;5.02;86.39;98346.91;5056040;28;20256;-80
2023/01/16 06:15:21;;;;;;;2.00;0.43;;;;;;;5.01;85.94;98352.97;5056240;28;20208;-83
2023/01/16 06:17:50;;;;;;;0.93;0.63;;;;;;;5.02;86.49;98347.75;5056393;28;20207;-80
2023/01/16 06:20:17;;;;;;;0.53;0.53;;;;;;;5.03;85.86;98352.00;5055502;28;20228;-81
2023/01/16 06:22:45;;;;;;;0.50;0.50;;;;;;;5.03;85.86;98364.09;5056314;28;20213;-80
2023/01/16 06:25:11;;;;;;;1.17;0.50;;;;;;;5.05;86.08;98355.41;5056215;28;20204;-81
2023/01/16 06:27:38;;;;;;;0.60;0.50;;;;;;;5.06;86.14;98354.53;5047878;28;20227;-84
2023/01/16 06:30:05;;;;;;;1.30;1.00;;;;;;;5.08;86.09;98352.72;5042011;28;20259;-80
2023/01/16 06:32:32;;;;;;;2.17;0.80;;;;;;;5.07;86.36;98345.00;5035514;28;20260;-80
2023/01/16 06:34:58;;;;;;;0.80;0.70;;;;;;;5.07;85.94;98343.25;5035720;28;20209;-80
2023/01/16 06:37:24;;;;;;;1.60;1.23;;;;;;;5.07;85.54;98347.59;5036042;28;20209;-84
2023/01/16 06:39:52;;;;;;;1.90;1.30;;;;;;;5.07;84.99;98345.00;5035174;28;20217;-82
2023/01/16 06:42:20;;;;;;;1.70;0.93;;;;;;;4.99;85.71;98342.66;5042430;28;20237;-80
2023/01/16 06:44:46;;;;;;;2.13;0.67;;;;;;;4.99;85.13;98353.00;5054294;28;20210;-81
2023/01/16 06:47:12;;;;;;;2.70;0.73;;;;;;;4.87;85.93;98343.03;5045790;28;20259;-80
2023/01/16 06:49:39;;;;;;;1.93;0.80;;;;;;;4.90;86.31;98332.59;5047504;28;20262;-83
2023/01/16 06:52:05;;;;;;;1.57;0.60;;;;;;;4.91;85.43;98329.94;5055414;28;20729;-82
2023/01/16 06:54:31;;;;;;;1.60;1.40;;;;;;;4.86;86.06;98328.44;5055784;28;20215;-79
2023/01/16 06:56:59;;;;;;;1.37;0.93;;;;;;;4.83;85.95;98313.00;5055880;28;20586;-81
2023/01/16 06:59:25;;;;;;;1.53;0.80;;;;;;;4.87;85.82;98318.00;5055376;28;20212;-82
2023/01/16 07:01:52;;;;;;;2.57;1.00;;;;;;;4.84;86.11;98322.47;5054571;28;20293;-81
2023/01/16 07:04:18;;;;;;;1.50;0.67;;;;;;;4.92;85.45;98331.66;5053389;28;20209;-82
2023/01/16 07:06:45;;;;;;;2.90;0.87;;;;;;;4.90;84.91;98348.13;5025559;28;20668;-82
2023/01/16 07:09:11;;;;;;;2.03;1.00;;;;;;;4.85;85.10;98349.97;5026974;28;20201;-83
2023/01/16 07:11:38;;;;;;;0.80;0.70;;;;;;;4.74;85.59;98338.22;5034405;28;20764;-80
2023/01/16 07:22:38;;;;;;;1.40;1.03;;;;;;;4.85;85.97;98311.22;5055313;28;20254;-84
2023/01/16 07:25:10;;;;;;;2.37;0.60;;;;;;;4.86;85.42;98312.91;5055849;28;20204;-81
2023/01/16 07:27:37;;;;;;;1.87;0.93;;;;;;;4.89;85.19;98312.81;5055375;28;20621;-83
2023/01/16 07:30:06;;;;;;;2.33;0.80;;;;;;;4.93;85.23;98323.00;5055082;28;20205;-80
2023/01/16 07:32:33;;;;;;;0.57;0.57;;;;;;;4.89;84.87;98317.97;5049815;22;20685;-80
2023/01/16 07:34:59;;;;;;;2.93;0.80;;;;;;;4.89;84.89;98316.22;5021958;28;20207;-78
2023/01/16 07:37:25;;;;;;;2.03;0.77;;;;;;;4.95;84.85;98302.28;5035188;28;20249;-80
2023/01/16 07:39:51;;;;;;;2.13;0.80;;;;;;;4.93;85.20;98310.06;5034163;28;20273;-80
2023/01/16 07:42:18;;;;;;;2.27;1.10;;;;;;;4.89;84.93;98302.47;5034126;28;20656;-80
2023/01/16 07:44:44;;;;;;;2.30;0.80;;;;;;;4.90;85.13;98302.44;5035169;28;20206;-80
2023/01/16 07:47:12;;;;;;;1.37;0.90;;;;;;;4.86;84.96;98298.25;5035074;28;20214;-80
2023/01/16 07:49:39;;;;;;;0.80;0.70;;;;;;;4.89;85.08;98298.13;5042105;28;20761;-80
2023/01/16 07:52:05;;;;;;;2.63;0.90;;;;;;;4.68;83.86;98322.91;5046899;28;20222;-81
2023/01/16 07:54:35;;;;;;;4.70;0.90;;;;;;;4.74;84.38;98321.88;5054439;28;20212;-80
2023/01/16 07:57:01;;;;;;;1.37;0.70;;;;;;;4.73;84.46;98321.00;5041306;28;20198;-80
2023/01/16 07:59:28;;;;;;;1.33;0.70;;;;;;;4.85;84.90;98306.03;5050893;28;20629;-80
2023/01/16 08:01:54;;;;;;;1.07;0.77;;;;;;;4.88;84.69;98306.81;5053843;28;20703;-80
2023/01/16 08:04:22;;;;;;;2.00;0.80;;;;;;;4.89;85.08;98295.56;5056040;28;20223;-80
2023/01/16 08:06:48;;;;;;;0.80;0.80;;;;;;;4.89;84.95;98295.56;5055089;28;20299;-81
2023/01/16 08:09:14;;;;;;;1.27;0.63;;;;;;;5.01;84.84;98283.16;5055433;28;20204;-81
2023/01/16 08:11:46;;;;;;;2.17;0.70;;;;;;;5.10;84.85;98282.88;5053751;28;20697;-81
2023/01/16 08:14:14;;;;;;;1.53;0.77;;;;;;;5.12;85.12;98274.16;5055306;28;20262;-80
2023/01/16 08:16:40;;;;;;;0.90;0.70;;;;;;;5.18;84.41;98273.97;5055295;28;20267;-80
2023/01/16 08:19:06;;;;;;;1.87;0.93;;;;;;;5.22;84.23;98286.81;5055577;28;20259;-80
2023/01/16 08:21:34;;;;;;;1.60;1.00;;;;;;;5.28;83.83;98296.97;5054087;28;20773;-80
2023/01/16 08:24:00;;;;;;;1.90;0.80;;;;;;;5.27;83.99;98293.53;5055353;28;20212;-80
2023/01/16 08:26:27;;;;;;;1.00;0.53;;;;;;;5.35;84.14;98288.94;5053617;28;20203;-80
2023/01/16 08:28:53;;;;;;;2.33;1.30;;;;;;;5.44;83.48;98297.31;5047282;28;20205;-80
2023/01/16 08:31:19;;;;;;;1.60;0.80;;;;;;;5.37;83.31;98301.81;5053898;28;20225;-80
2023/01/16 08:33:46;;;;;;;1.50;0.80;;;;;;;5.41;83.16;98290.50;5055354;28;20305;-81
2023/01/16 08:36:15;;;;;;;2.43;0.80;;;;;;;5.43;82.75;98285.25;5053773;28;20209;-80
2023/01/16 08:38:43;;;;;;;1.33;0.80;;;;;;;5.48;82.79;98291.13;5054261;28;20300;-80
2023/01/16 08:51:21;;;;;;;2.03;0.90;;;;;;;5.45;82.35;98293.81;5053123;28;20368;-80
2023/01/16 08:52:10;;;;;;;2.00;0.83;;;;;;;5.46;82.14;98322.22;5052236;28;20632;-77
2023/01/16 08:54:38;;;;;;;2.20;0.80;;;;;;;5.47;81.35;98313.59;5053493;28;20207;-79
2023/01/16 08:57:05;;;;;;;2.40;0.90;;;;;;;5.49;81.77;98313.50;5047140;28;20638;-80
2023/01/16 08:59:33;;;;;;;1.70;0.83;;;;;;;5.46;81.03;98314.47;5050972;28;20205;-80
2023/01/16 09:02:00;;;;;;;1.20;0.73;;;;;;;5.41;80.06;98328.44;5052655;28;20908;-79
2023/01/16 09:04:27;;;;;;;0.90;0.60;;;;;;;5.44;80.80;98329.19;5053385;28;20683;-79
2023/01/16 09:06:53;;;;;;;2.57;0.77;;;;;;;5.47;81.24;98330.81;5054080;28;20198;-80
2023/01/16 09:09:20;;;;;;;1.70;0.90;;;;;;;5.48;80.12;98314.41;5053849;28;20213;-79
2023/01/16 09:14:38;;;;;;;3.60;1.10;;;;;;;5.58;80.00;98339.94;5054062;28;20204;-80
2023/01/16 09:17:05;;;;;;;1.77;0.90;;;;;;;5.61;79.45;98359.72;5053389;28;20582;-80
2023/01/16 09:19:32;;;;;;;1.67;0.73;;;;;;;5.53;79.21;98362.53;5053433;28;20742;-79
2023/01/16 09:21:58;;;;;;;1.40;0.60;;;;;;;5.54;79.78;98351.28;5052843;28;20282;-79
2023/01/16 09:24:26;;;;;;;0.80;0.60;;;;;;;5.54;79.70;98351.28;5053306;28;20241;-79
2023/01/16 09:26:53;;;;;;;1.57;0.87;;;;;;;5.47;79.54;98348.94;5048618;28;20226;-80
2023/01/16 09:29:20;;;;;;;1.80;0.70;;;;;;;5.38;79.52;98355.25;5048828;28;20257;-80
2023/01/16 09:31:46;;;;;;;1.43;0.80;;;;;;;5.46;79.43;98340.34;5052835;28;20236;-79
2023/01/16 09:34:12;;;;;;;1.70;0.70;;;;;;;5.44;79.55;98328.34;5053298;28;20624;-80
2023/01/16 09:36:38;;;;;;;0.87;0.80;;;;;;;5.55;80.51;98319.34;5053632;28;20619;-79
2023/01/16 09:39:05;;;;;;;0.53;0.50;;;;;;;5.55;79.79;98313.34;5053465;28;20236;-79
2023/01/16 09:44:24;;;;;;;0.80;0.70;;;;;;;5.58;78.92;98327.00;5057814;28;20209;-80
2023/01/16 09:46:53;;;;;;;1.17;0.80;;;;;;;5.62;79.67;98314.81;5057700;28;20211;-80
2023/01/16 09:49:24;;;;;;;1.53;0.63;;;;;;;5.66;78.45;98316.38;5057451;28;20206;-79
2023/01/16 10:00:19;;;;;;;1.23;0.60;;;;;;;6.07;76.41;98349.59;5026741;28;20686;-79
2023/01/16 10:02:46;;;;;;;4.07;0.83;;;;;;;6.22;76.35;98353.38;5027312;28;20222;-80
2023/01/16 10:05:13;;;;;;;2.00;0.90;;;;;;;6.08;77.03;98375.41;5026180;28;20783;-79
2023/01/16 10:07:48;;;;;;;0.97;0.70;;;;;;;6.16;76.57;98347.53;5027054;28;20201;-79
2023/01/16 10:10:33;;;;;;;1.40;0.63;;;;;;;6.14;75.57;98356.22;5026644;28;20205;-80
2023/01/16 10:13:09;;;;;;;1.43;0.50;;;;;;;6.26;75.68;98360.97;5023978;28;20229;-79
2023/01/16 10:15:42;;;;;;;0.90;0.70;;;;;;;6.35;76.00;98365.84;5025269;28;20441;-79
2023/01/16 10:18:21;;;;;;;0.93;0.60;;;;;;;6.35;74.72;98368.44;5022311;28;20681;-79
2023/01/16 10:20:57;;;;;;;1.80;0.70;;;;;;;6.33;74.87;98377.19;5030276;28;20206;-80
2023/01/16 10:23:44;;;;;;;0.60;0.50;;;;;;;6.38;74.30;98393.41;5027940;28;20569;-79
2023/01/16 10:26:18;;;;;;;1.20;0.50;;;;;;;6.52;75.02;98367.88;5025649;28;20201;-79
2023/01/16 10:28:56;;;;;;;2.40;0.50;;;;;;;6.48;74.07;98380.97;5025089;28;20206;-79
2023/01/16 10:31:27;;;;;;;0.80;0.50;;;;;;;6.46;73.62;98364.63;5020481;28;20970;-79
2023/01/16 10:33:59;;;;;;;1.10;0.50;;;;;;;6.40;74.17;98359.66;5023529;28;20207;-79
2023/01/16 10:36:31;;;;;;;0.60;0.50;;;;;;;6.44;74.73;98353.47;5024475;28;20575;-79
2023/01/16 10:39:00;;;;;;;0.40;0.40;;;;;;;6.48;73.88;98355.03;5026316;28;20272;-79
2023/01/16 10:50:11;;;;;;;2.10;1.07;;;;;;;6.39;73.21;98351.06;5020383;28;20221;-80
2023/01/16 10:52:39;;;;;;;1.73;0.70;;;;;;;6.46;73.49;98360.31;5027441;28;20720;-78
2023/01/16 10:55:07;;;;;;;0.60;0.60;;;;;;;6.46;73.01;98339.56;5024707;28;20198;-79
2023/01/16 10:57:34;;;;;;;1.57;0.57;;;;;;;6.49;73.00;98329.09;5025093;28;20206;-79
2023/01/16 11:00:06;;;;;;;1.20;0.50;;;;;;;6.52;72.32;98336.75;5025498;28;20280;-80
2023/01/16 11:02:38;;;;;;;1.43;0.80;;;;;;;6.51;72.69;98340.25;5022671;28;20229;-78
2023/01/16 11:05:23;;;;;;;0.87;0.60;;;;;;;6.57;72.37;98326.22;5024057;28;20208;-78
2023/01/16 11:07:53;;;;;;;0.63;0.50;;;;;;;6.60;71.95;98325.25;5025696;28;20588;-79
2023/01/16 11:10:21;;;;;;;1.63;0.57;;;;;;;6.51;72.02;98318.66;5029190;28;20243;-80
2023/01/16 11:18:30;;;;;;;2.00;1.00;;;;;;;6.55;70.89;98304.69;5055077;28;20212;-79
2023/01/16 11:21:00;;;;;;;0.83;0.50;;;;;;;6.47;70.50;98294.59;5034407;28;20202;-79
2023/01/16 11:23:28;;;;;;;0.93;0.60;;;;;;;6.48;71.62;98283.34;5050949;28;20251;-79
2023/01/16 11:25:57;;;;;;;1.70;0.57;;;;;;;6.50;70.71;98285.84;5048440;28;20210;-80
2023/01/16 11:28:26;;;;;;;3.00;0.63;;;;;;;6.50;70.75;98288.44;5050764;28;20209;-79
2023/01/16 11:30:56;;;;;;;2.10;0.40;;;;;;;6.49;70.75;98295.38;5046136;28;20232;-79
2023/01/16 11:33:28;;;;;;;1.53;0.40;;;;;;;6.57;70.62;98292.50;5046567;28;20254;-79
2023/01/16 11:35:58;;;;;;;1.13;0.57;;;;;;;6.54;70.04;98300.41;5052992;28;20284;-79
2023/01/16 11:38:27;;;;;;;2.37;0.60;;;;;;;6.53;69.47;98272.81;5046349;28;20254;-79
2023/01/16 11:40:57;;;;;;;3.97;0.70;;;;;;;6.47;68.93;98288.59;5052750;28;20772;-79
2023/01/16 11:46:38;;;;;;;1.63;0.60;;;;;;;6.45;70.78;98292.97;5051278;28;20259;-79
2023/01/16 11:49:16;;;;;;;1.37;0.50;;;;;;;6.43;70.14;98274.06;5036622;28;20196;-78
2023/01/16 11:51:42;;;;;;;2.10;0.60;;;;;;;6.45;70.04;98267.06;5032971;28;20235;-79
2023/01/16 11:54:14;;;;;;;0.67;0.50;;;;;;;6.41;70.40;98281.88;5042389;28;20206;-79
2023/01/16 11:56:53;;;;;;;1.17;1.07;;;;;;;6.43;69.79;98276.66;5053183;28;20259;-79
2023/01/16 11:59:41;;;;;;;1.43;0.53;;;;;;;6.45;70.36;98260.13;5045339;28;20583;-79
2023/01/16 12:02:21;;;;;;;0.70;0.60;;;;;;;6.51;68.55;98246.09;5014445;28;20230;-79
2023/01/16 12:07:57;;;;;;;1.43;0.57;;;;;;;6.58;69.27;98270.91;5037527;28;20212;-79
2023/01/16 12:10:35;;;;;;;3.73;1.00;;;;;;;6.69;69.33;98237.59;5037830;28;20202;-79
2023/01/16 12:16:02;;;;;;;0.60;0.53;;;;;;;6.72;69.24;98223.69;5045190;28;20251;-80
2023/01/16 12:18:37;;;;;;;0.67;0.60;;;;;;;6.76;68.55;98223.50;5051438;28;20291;-80
2023/01/16 12:21:18;;;;;;;2.53;0.80;;;;;;;6.71;69.22;98229.78;5035398;28;20198;-80
2023/01/16 12:24:04;;;;;;;0.87;0.60;;;;;;;6.60;69.53;98211.19;5036216;28;20279;-80
2023/01/16 12:26:38;;;;;;;2.60;1.00;;;;;;;6.60;69.80;98187.88;5045907;28;20242;-80
2023/01/16 12:29:17;;;;;;;1.60;0.73;;;;;;;6.66;70.00;98178.13;5048832;28;20275;-80
2023/01/16 12:31:59;;;;;;;1.97;0.80;;;;;;;6.71;70.28;98149.41;5043884;28;20233;-79
2023/01/16 12:34:41;;;;;;;1.77;0.70;;;;;;;6.75;70.79;98118.09;5053841;28;20217;-80
2023/01/16 12:37:28;;;;;;;1.80;0.97;;;;;;;6.73;70.26;98112.13;5045524;28;20229;-79
2023/01/16 12:40:04;;;;;;;1.60;0.60;;;;;;;6.71;70.15;98113.13;5013889;28;20301;-80
2023/01/16 12:45:37;;;;;;;3.20;0.63;;;;;;;6.62;69.04;98118.66;5050215;28;20209;-80
2023/01/16 12:48:21;;;;;;;0.90;0.57;;;;;;;6.74;70.27;98093.09;5033813;28;20206;-83
2023/01/16 12:51:01;;;;;;;3.27;0.63;;;;;;;6.79;70.79;98068.72;4329525;28;10001727;-80
2023/01/16 12:53:53;;;;;;;1.13;0.60;;;;;;;6.84;70.25;98082.31;5038356;28;20209;-81